createdAt,value
2022-11-28T00:00:16.852Z,72.93
2022-11-28T00:02:43.643Z,72.79
2022-11-28T00:05:11.877Z,72.81
2022-11-28T00:07:38.648Z,72.84
2022-11-28T00:10:06.428Z,72.40
2022-11-28T00:12:35.087Z,72.54
2022-11-28T00:15:01.763Z,71.81
2022-11-28T00:17:28.516Z,71.54
2022-11-28T00:19:55.075Z,71.76
2022-11-28T00:22:21.781Z,72.01
2022-11-28T00:24:48.552Z,72.28
2022-11-28T00:27:15.290Z,72.40
2022-11-28T00:29:41.914Z,72.71
2022-11-28T00:32:08.665Z,72.19
2022-11-28T00:34:35.499Z,72.98
2022-11-28T00:37:02.234Z,72.57
2022-11-28T00:39:28.797Z,72.44
2022-11-28T00:41:55.452Z,72.45
2022-11-28T00:44:22.433Z,72.68
2022-11-28T00:46:49.113Z,71.80
2022-11-28T00:49:15.677Z,72.33
2022-11-28T00:51:42.471Z,72.07
2022-11-28T00:54:10.014Z,72.36
2022-11-28T00:56:39.068Z,72.54
2022-11-28T00:59:05.896Z,72.48
2022-11-28T01:01:39.640Z,72.38
2022-11-28T01:04:08.698Z,72.39
2022-11-28T01:06:38.460Z,72.24
2022-11-28T01:09:08.697Z,72.31
2022-11-28T01:11:37.413Z,72.31
2022-11-28T01:14:04.134Z,71.87
2022-11-28T01:16:30.800Z,71.32
2022-11-28T01:18:57.824Z,71.44
2022-11-28T01:21:25.244Z,70.86
2022-11-28T01:23:52.108Z,70.93
2022-11-28T01:26:22.972Z,71.33
2022-11-28T01:28:49.908Z,71.77
2022-11-28T01:31:18.752Z,71.63
2022-11-28T01:33:45.681Z,71.74
2022-11-28T01:36:13.963Z,71.24
2022-11-28T01:38:42.466Z,71.00
2022-11-28T01:41:09.897Z,71.63
2022-11-28T01:43:37.971Z,71.63
2022-11-28T01:46:05.499Z,72.29
2022-11-28T01:48:37.701Z,72.00
2022-11-28T01:51:08.912Z,72.06
2022-11-28T01:53:39.854Z,72.04
2022-11-28T01:56:29.100Z,71.93
2022-11-28T01:59:02.556Z,71.11
2022-11-28T02:01:29.568Z,71.81
2022-11-28T02:03:58.943Z,71.36
2022-11-28T02:06:26.490Z,72.10
2022-11-28T02:08:55.059Z,71.69
2022-11-28T02:11:55.864Z,71.85
2022-11-28T02:14:28.592Z,72.06
2022-11-28T02:17:13.591Z,72.28
2022-11-28T02:20:19.407Z,72.11
2022-11-28T02:23:25.262Z,72.23
2022-11-28T02:26:17.500Z,71.79
2022-11-28T02:28:50.592Z,72.46
2022-11-28T02:31:26.307Z,72.06
2022-11-28T02:34:00.136Z,72.44
2022-11-28T02:36:47.299Z,72.60
2022-11-28T02:39:25.097Z,72.57
2022-11-28T02:42:08.883Z,72.30
2022-11-28T02:44:47.578Z,71.67
2022-11-28T02:47:25.834Z,72.02
2022-11-28T02:50:22.011Z,72.17
2022-11-28T02:52:53.141Z,72.34
2022-11-28T02:55:20.582Z,72.73
2022-11-28T02:57:53.871Z,72.47
2022-11-28T03:00:32.700Z,72.53
2022-11-28T03:03:08.485Z,72.50
2022-11-28T03:05:46.589Z,72.77
2022-11-28T03:08:32.119Z,72.64
2022-11-28T03:11:10.379Z,72.76
2022-11-28T03:13:52.620Z,72.40
2022-11-28T03:16:41.134Z,71.88
2022-11-28T03:19:15.792Z,72.09
2022-11-28T03:21:50.854Z,72.38
2022-11-28T03:24:41.048Z,72.96
2022-11-28T03:27:14.493Z,73.35
2022-11-28T03:29:46.678Z,73.22
2022-11-28T03:32:18.505Z,73.64
2022-11-28T03:34:48.966Z,73.61
2022-11-28T03:37:39.462Z,73.91
2022-11-28T03:40:10.994Z,73.85
2022-11-28T03:42:42.511Z,73.67
2022-11-28T03:45:30.106Z,73.59
2022-11-28T03:48:10.312Z,73.47
2022-11-28T03:50:45.986Z,73.44
2022-11-28T03:53:24.362Z,72.74
2022-11-28T03:56:04.748Z,73.56
2022-11-28T03:58:37.810Z,73.40
2022-11-28T04:01:18.465Z,73.34
2022-11-28T04:04:05.516Z,73.79
2022-11-28T04:06:51.326Z,73.24
2022-11-28T04:09:27.347Z,73.22
2022-11-28T04:11:59.304Z,73.15
2022-11-28T04:14:34.698Z,73.30
2022-11-28T04:17:13.195Z,73.26
2022-11-28T04:19:58.314Z,73.27
2022-11-28T04:22:31.809Z,73.51
2022-11-28T04:25:03.689Z,73.51
2022-11-28T04:27:36.584Z,73.59
2022-11-28T04:30:05.263Z,73.13
2022-11-28T04:32:34.504Z,73.15
2022-11-28T04:35:06.782Z,72.97
2022-11-28T04:37:37.232Z,72.99
2022-11-28T04:40:07.816Z,73.22
2022-11-28T04:42:52.482Z,73.31
2022-11-28T04:45:35.167Z,73.02
2022-11-28T04:48:02.707Z,73.15
2022-11-28T04:50:43.848Z,73.16
2022-11-28T04:53:28.251Z,72.74
2022-11-28T04:56:01.803Z,72.95
2022-11-28T04:58:38.183Z,73.16
2022-11-28T05:01:07.753Z,72.34
2022-11-28T05:03:38.735Z,72.79
2022-11-28T05:06:09.127Z,72.88
2022-11-28T05:08:35.720Z,73.16
2022-11-28T05:11:02.457Z,72.96
2022-11-28T05:13:29.196Z,72.68
2022-11-28T05:15:55.925Z,73.36
2022-11-28T05:18:22.534Z,73.91
2022-11-28T05:20:49.229Z,73.49
2022-11-28T05:23:15.781Z,74.02
2022-11-28T05:25:42.460Z,74.31
2022-11-28T05:28:09.108Z,74.20
2022-11-28T05:30:35.730Z,73.71
2022-11-28T05:33:02.405Z,73.76
2022-11-28T05:35:29.288Z,73.68
2022-11-28T05:37:55.911Z,74.18
2022-11-28T05:40:23.048Z,73.60
2022-11-28T05:42:49.644Z,73.95
2022-11-28T05:45:16.356Z,74.04
2022-11-28T05:47:43.028Z,73.69
2022-11-28T05:50:10.066Z,73.42
2022-11-28T05:52:36.677Z,74.23
2022-11-28T05:55:03.504Z,74.06
2022-11-28T05:57:31.927Z,73.85
2022-11-28T05:59:58.627Z,73.99
2022-11-28T06:02:25.407Z,73.82
2022-11-28T06:04:52.158Z,73.99
2022-11-28T06:07:18.881Z,73.64
2022-11-28T06:09:45.747Z,74.79
2022-11-28T06:12:12.419Z,74.77
2022-11-28T06:14:39.224Z,74.45
2022-11-28T06:17:05.861Z,73.44
2022-11-28T06:19:32.752Z,73.60
2022-11-28T06:21:59.368Z,73.10
2022-11-28T06:24:26.217Z,73.25
2022-11-28T06:26:52.872Z,74.47
2022-11-28T06:29:19.458Z,74.05
2022-11-28T06:31:46.121Z,74.70
2022-11-28T06:34:16.109Z,74.77
2022-11-28T06:36:43.733Z,75.46
2022-11-28T06:39:14.956Z,75.02
2022-11-28T06:41:42.866Z,75.10
2022-11-28T06:44:16.039Z,74.96
2022-11-28T06:46:43.701Z,74.38
2022-11-28T06:49:11.830Z,74.40
2022-11-28T06:51:39.982Z,73.84
2022-11-28T06:54:07.261Z,73.51
2022-11-28T06:56:33.946Z,73.35
2022-11-28T06:59:00.872Z,73.44
2022-11-28T07:01:30.164Z,73.11
2022-11-28T07:03:57.047Z,73.77
2022-11-28T07:06:26.213Z,73.91
2022-11-28T07:08:53.447Z,73.98
2022-11-28T07:11:23.895Z,74.05
2022-11-28T07:13:51.414Z,74.32
2022-11-28T07:16:30.567Z,75.90
2022-11-28T07:18:58.589Z,75.64
2022-11-28T07:21:26.696Z,74.74
2022-11-28T07:23:53.331Z,75.02
2022-11-28T07:26:21.374Z,73.71
2022-11-28T07:28:49.535Z,74.07
2022-11-28T07:31:19.163Z,72.39
2022-11-28T07:33:48.452Z,72.19
2022-11-28T07:36:26.952Z,71.69
2022-11-28T07:38:56.647Z,72.82
2022-11-28T07:41:26.816Z,73.29
2022-11-28T07:43:56.425Z,73.06
2022-11-28T07:46:23.713Z,72.61
2022-11-28T07:48:50.587Z,71.83
2022-11-28T07:51:24.175Z,71.62
2022-11-28T07:53:51.453Z,71.41
2022-11-28T07:56:21.904Z,71.13
2022-11-28T07:58:49.518Z,70.76
2022-11-28T08:01:19.183Z,70.53
2022-11-28T08:03:47.176Z,70.56
2022-11-28T08:06:16.557Z,70.33
2022-11-28T08:08:43.909Z,70.27
2022-11-28T08:11:10.564Z,70.85
2022-11-28T08:13:38.432Z,70.89
2022-11-28T08:16:07.740Z,71.00
2022-11-28T08:18:35.292Z,70.43
2022-11-28T08:21:10.153Z,70.23
2022-11-28T08:23:37.904Z,70.33
2022-11-28T08:26:07.052Z,70.03
2022-11-28T08:28:34.030Z,70.24
2022-11-28T08:31:09.277Z,70.26
2022-11-28T08:33:36.255Z,70.78
2022-11-28T08:36:08.275Z,70.87
2022-11-28T08:38:35.559Z,71.30
2022-11-28T08:41:04.035Z,70.82
2022-11-28T08:43:30.970Z,71.75
2022-11-28T08:45:57.710Z,71.86
2022-11-28T08:48:24.660Z,72.00
2022-11-28T08:50:51.587Z,71.92
2022-11-28T08:53:18.793Z,71.90
2022-11-28T08:55:45.815Z,72.04
2022-11-28T08:58:12.536Z,71.55
2022-11-28T09:00:39.248Z,72.11
2022-11-28T09:03:06.192Z,72.21
2022-11-28T09:05:32.825Z,71.56
2022-11-28T09:07:59.506Z,71.48
2022-11-28T09:10:26.385Z,71.46
2022-11-28T09:12:53.055Z,70.80
2022-11-28T09:15:19.636Z,70.48
2022-11-28T09:17:46.862Z,70.47
2022-11-28T09:20:13.769Z,71.13
2022-11-28T09:22:40.537Z,71.29
2022-11-28T09:25:08.035Z,71.08
2022-11-28T09:27:34.703Z,71.02
2022-11-28T09:30:01.451Z,70.76
2022-11-28T09:32:28.250Z,70.50
2022-11-28T09:34:54.935Z,71.27
2022-11-28T09:37:21.941Z,71.07
2022-11-28T09:40:11.617Z,70.64
2022-11-28T09:42:39.320Z,70.42
2022-11-28T09:45:14.609Z,70.58
2022-11-28T09:47:44.683Z,70.59
2022-11-28T09:50:14.694Z,70.22
2022-11-28T09:52:49.617Z,69.96
2022-11-28T09:55:47.310Z,69.17
2022-11-28T09:58:50.448Z,69.85
2022-11-28T10:01:48.227Z,69.49
2022-11-28T10:04:38.214Z,68.69
2022-11-28T10:07:23.307Z,68.19
2022-11-28T10:10:26.565Z,68.24
2022-11-28T10:13:02.249Z,68.08
2022-11-28T10:15:44.099Z,67.88
2022-11-28T10:18:23.458Z,67.39
2022-11-28T10:20:55.041Z,67.58
2022-11-28T10:23:42.241Z,66.78
2022-11-28T10:26:31.428Z,66.70
2022-11-28T10:29:04.778Z,66.40
2022-11-28T10:31:36.650Z,66.29
2022-11-28T10:34:16.279Z,66.05
2022-11-28T10:36:49.085Z,65.70
2022-11-28T10:39:15.747Z,66.28
2022-11-28T10:42:11.534Z,67.61
2022-11-28T10:44:47.327Z,68.46
2022-11-28T10:47:28.089Z,67.85
2022-11-28T10:50:15.941Z,68.87
2022-11-28T10:52:58.188Z,68.65
2022-11-28T10:55:59.241Z,69.23
2022-11-28T10:59:02.437Z,69.29
2022-11-28T11:01:38.528Z,70.19
2022-11-28T11:04:06.805Z,71.45
2022-11-28T11:06:41.662Z,70.86
2022-11-28T11:09:14.776Z,70.87
2022-11-28T11:11:55.093Z,71.21
2022-11-28T11:14:34.278Z,71.18
2022-11-28T11:17:00.987Z,72.56
2022-11-28T11:19:39.339Z,72.45
2022-11-28T11:22:22.434Z,70.51
2022-11-28T11:25:04.488Z,71.38
2022-11-28T11:27:31.784Z,71.98
2022-11-28T11:29:59.096Z,71.10
2022-11-28T11:32:30.597Z,70.66
2022-11-28T11:34:58.681Z,69.81
2022-11-28T11:37:38.750Z,71.49
2022-11-28T11:40:32.078Z,71.53
2022-11-28T11:43:00.257Z,71.60
2022-11-28T11:45:33.106Z,71.66
2022-11-28T11:48:01.167Z,71.00
2022-11-28T11:50:30.575Z,70.50
2022-11-28T11:53:14.049Z,70.52
2022-11-28T11:56:02.502Z,69.84
2022-11-28T11:58:51.996Z,67.87
2022-11-28T12:01:21.481Z,67.89
2022-11-28T12:04:23.696Z,67.36
2022-11-28T12:07:05.059Z,67.79
2022-11-28T12:09:46.767Z,67.32
2022-11-28T12:12:22.318Z,68.07
2022-11-28T12:14:50.518Z,67.39
2022-11-28T12:20:31.128Z,68.34
2022-11-28T12:23:17.733Z,67.28
2022-11-28T12:25:51.191Z,67.47
2022-11-28T12:28:29.925Z,66.58
2022-11-28T12:31:35.452Z,66.91
2022-11-28T12:34:14.252Z,66.41
2022-11-28T12:37:17.032Z,65.17
2022-11-28T12:40:00.484Z,64.82
2022-11-28T12:42:56.489Z,64.65
2022-11-28T12:45:59.547Z,64.51
2022-11-28T12:48:29.271Z,65.32
2022-11-28T12:51:00.482Z,64.96
2022-11-28T12:53:51.473Z,65.38
2022-11-28T12:56:24.256Z,66.15
2022-11-28T12:59:17.341Z,66.31
2022-11-28T13:01:52.883Z,65.60
2022-11-28T13:04:41.597Z,64.74
2022-11-28T13:07:37.009Z,64.99
2022-11-28T13:10:12.845Z,65.82
2022-11-28T13:12:45.527Z,65.09
2022-11-28T13:15:40.732Z,64.74
2022-11-28T13:18:49.478Z,65.55
2022-11-28T13:21:38.100Z,65.08
2022-11-28T13:24:16.483Z,64.70
2022-11-28T13:26:53.507Z,64.64
2022-11-28T13:29:41.964Z,65.57
2022-11-28T13:32:28.693Z,64.71
2022-11-28T13:34:56.327Z,65.94
2022-11-28T13:40:51.710Z,65.93
2022-11-28T13:43:28.513Z,66.42
2022-11-28T13:45:56.109Z,67.06
2022-11-28T13:49:13.285Z,67.37
2022-11-28T13:51:30.212Z,67.72
2022-11-28T13:54:20.067Z,67.68
2022-11-28T13:57:03.517Z,68.14
2022-11-28T13:59:31.763Z,68.88
2022-11-28T14:02:05.185Z,69.66
2022-11-28T14:04:32.941Z,70.23
2022-11-28T14:07:06.392Z,70.08
2022-11-28T14:10:01.473Z,71.90
2022-11-28T14:13:07.196Z,72.85
2022-11-28T14:15:41.386Z,72.32
2022-11-28T14:21:31.918Z,70.72
2022-11-28T14:24:01.498Z,71.68
2022-11-28T14:26:43.161Z,72.16
2022-11-28T14:29:40.855Z,72.16
2022-11-28T14:32:40.429Z,70.71
2022-11-28T14:35:17.214Z,70.00
2022-11-28T14:37:52.306Z,69.41
2022-11-28T14:40:54.127Z,69.63
2022-11-28T14:43:24.070Z,69.20
2022-11-28T14:45:52.798Z,68.47
2022-11-28T14:48:22.951Z,68.79
2022-11-28T14:50:59.083Z,68.57
2022-11-28T14:53:44.639Z,67.78
2022-11-28T14:56:16.993Z,67.35
2022-11-28T14:58:48.862Z,67.19
2022-11-28T15:01:43.184Z,67.02
2022-11-28T15:04:39.092Z,66.76
2022-11-28T15:07:21.045Z,66.47
2022-11-28T15:10:11.094Z,67.33
2022-11-28T15:12:53.100Z,67.39
2022-11-28T15:15:19.995Z,67.14
2022-11-28T15:17:52.908Z,66.47
2022-11-28T15:20:36.636Z,66.33
2022-11-28T15:23:03.413Z,66.01
2022-11-28T15:25:34.274Z,66.49
2022-11-28T15:28:14.992Z,65.96
2022-11-28T15:30:47.768Z,67.64
2022-11-28T15:33:14.894Z,67.71
2022-11-28T15:36:02.419Z,67.66
2022-11-28T15:38:31.297Z,67.91
2022-11-28T15:40:59.896Z,68.20
2022-11-28T15:43:27.535Z,68.42
2022-11-28T15:46:02.827Z,68.35
2022-11-28T15:48:39.256Z,67.32
2022-11-28T15:51:25.087Z,67.66
2022-11-28T15:53:54.946Z,67.69
2022-11-28T15:56:23.338Z,67.58
2022-11-28T15:58:54.141Z,67.63
2022-11-28T16:01:23.040Z,67.61
2022-11-28T16:04:04.197Z,67.98
2022-11-28T16:06:33.926Z,69.08
2022-11-28T16:09:07.448Z,68.87
2022-11-28T16:11:35.701Z,68.56
2022-11-28T16:14:08.614Z,69.01
2022-11-28T16:16:38.048Z,69.80
2022-11-28T16:19:08.586Z,70.45
2022-11-28T16:21:44.177Z,69.74
2022-11-28T16:24:38.304Z,70.35
2022-11-28T16:27:06.146Z,69.87
2022-11-28T16:29:35.649Z,69.76
2022-11-28T16:32:39.796Z,69.27
2022-11-28T16:35:12.096Z,69.41
2022-11-28T16:37:39.010Z,69.44
2022-11-28T16:40:20.828Z,69.90
2022-11-28T16:42:57.313Z,69.70
2022-11-28T16:45:31.017Z,70.59
2022-11-28T16:48:09.704Z,69.17
2022-11-28T16:50:37.505Z,69.55
2022-11-28T16:53:05.104Z,68.82
2022-11-28T16:55:31.828Z,68.44
2022-11-28T16:58:09.870Z,68.09
2022-11-28T17:00:40.241Z,68.05
2022-11-28T17:03:11.646Z,67.82
2022-11-28T17:05:39.647Z,68.02
2022-11-28T17:08:08.192Z,67.72
2022-11-28T17:10:34.903Z,68.26
2022-11-28T17:13:02.419Z,68.54
2022-11-28T17:15:29.151Z,68.25
2022-11-28T17:17:55.762Z,68.71
2022-11-28T17:20:23.358Z,68.33
2022-11-28T17:22:50.065Z,67.67
2022-11-28T17:25:20.627Z,67.88
2022-11-28T17:27:48.116Z,68.00
2022-11-28T17:30:17.001Z,68.25
2022-11-28T17:32:43.911Z,67.74
2022-11-28T17:35:16.937Z,68.88
2022-11-28T17:37:44.654Z,68.51
2022-11-28T17:40:11.405Z,69.05
2022-11-28T17:42:38.084Z,69.40
2022-11-28T17:45:14.827Z,69.38
2022-11-28T17:47:42.876Z,69.04
2022-11-28T17:50:10.026Z,68.94
2022-11-28T17:52:36.932Z,68.87
2022-11-28T17:55:06.937Z,68.82
2022-11-28T17:57:34.345Z,69.75
2022-11-28T18:00:01.057Z,69.41
2022-11-28T18:02:28.276Z,69.34
2022-11-28T18:04:54.898Z,69.59
2022-11-28T18:07:22.690Z,69.98
2022-11-28T18:09:49.403Z,70.19
2022-11-28T18:12:16.072Z,70.81
2022-11-28T18:14:42.696Z,70.88
2022-11-28T18:17:09.474Z,70.11
2022-11-28T18:19:36.339Z,70.78
2022-11-28T18:22:03.105Z,70.69
2022-11-28T18:24:29.920Z,70.66
2022-11-28T18:26:56.908Z,70.29
2022-11-28T18:29:25.910Z,70.00
2022-11-28T18:31:53.591Z,69.88
2022-11-28T18:34:22.573Z,69.87
2022-11-28T18:36:51.825Z,69.23
2022-11-28T18:39:18.506Z,69.42
2022-11-28T18:41:45.164Z,69.32
2022-11-28T18:44:15.467Z,69.23
2022-11-28T18:46:45.399Z,69.42
2022-11-28T18:49:16.248Z,69.59
2022-11-28T18:51:47.820Z,69.79
2022-11-28T18:54:20.799Z,69.85
2022-11-28T18:56:50.469Z,69.90
2022-11-28T18:59:17.466Z,69.95
2022-11-28T19:01:44.207Z,70.25
2022-11-28T19:04:12.724Z,70.04
2022-11-28T19:06:45.620Z,70.76
2022-11-28T19:09:14.476Z,71.26
2022-11-28T19:11:42.368Z,71.71
2022-11-28T19:14:22.194Z,72.00
2022-11-28T19:16:49.142Z,71.66
2022-11-28T19:19:17.546Z,71.48
2022-11-28T19:21:51.434Z,71.77
2022-11-28T19:24:18.177Z,72.72
2022-11-28T19:26:44.924Z,72.71
2022-11-28T19:29:12.151Z,73.36
2022-11-28T19:31:44.318Z,72.85
2022-11-28T19:34:14.637Z,73.40
2022-11-28T19:36:45.294Z,73.26
2022-11-28T19:39:17.890Z,73.38
2022-11-28T19:41:46.069Z,74.33
2022-11-28T19:44:16.723Z,74.14
2022-11-28T19:46:43.867Z,74.50
2022-11-28T19:49:23.192Z,75.15
2022-11-28T19:51:53.688Z,74.34
2022-11-28T19:54:22.839Z,74.70
2022-11-28T19:56:51.125Z,74.76
2022-11-28T19:59:18.492Z,75.16
2022-11-28T20:01:48.309Z,75.37
2022-11-28T20:04:19.385Z,75.89
2022-11-28T20:06:54.035Z,75.38
2022-11-28T20:09:23.621Z,75.54
2022-11-28T20:11:53.416Z,75.27
2022-11-28T20:14:22.683Z,74.97
2022-11-28T20:16:49.652Z,75.47
2022-11-28T20:19:18.226Z,75.13
2022-11-28T20:21:48.612Z,75.88
2022-11-28T20:24:18.699Z,75.60
2022-11-28T20:26:46.697Z,75.53
2022-11-28T20:29:16.503Z,75.60
2022-11-28T20:31:46.896Z,75.51
2022-11-28T20:34:17.515Z,75.49
2022-11-28T20:36:45.305Z,75.31
2022-11-28T20:39:13.183Z,75.25
2022-11-28T20:41:40.032Z,75.35
2022-11-28T20:44:06.726Z,75.04
2022-11-28T20:46:34.045Z,74.50
2022-11-28T20:49:03.074Z,74.92
2022-11-28T20:51:31.795Z,73.84
2022-11-28T20:54:01.865Z,74.84
2022-11-28T20:56:30.836Z,74.80
2022-11-28T20:58:59.331Z,74.61
2022-11-28T21:01:32.458Z,75.16
2022-11-28T21:04:01.399Z,74.86
2022-11-28T21:06:28.124Z,74.53
2022-11-28T21:08:55.667Z,74.52
2022-11-28T21:11:55.255Z,74.56
2022-11-28T21:14:21.141Z,74.61
2022-11-28T21:16:50.381Z,74.98
2022-11-28T21:19:18.511Z,75.25
2022-11-28T21:21:45.518Z,76.04
2022-11-28T21:24:13.312Z,77.93
2022-11-28T21:26:46.385Z,81.39
2022-11-28T21:29:16.636Z,83.46
2022-11-28T21:31:44.457Z,83.66
2022-11-28T21:34:13.083Z,83.11
2022-11-28T21:36:39.954Z,83.65
2022-11-28T21:39:06.672Z,82.27
2022-11-28T21:41:33.340Z,82.82
2022-11-28T21:44:00.497Z,84.15
2022-11-28T21:46:27.992Z,82.18
2022-11-28T21:48:54.766Z,81.24
2022-11-28T21:51:23.372Z,82.04
2022-11-28T21:53:50.102Z,81.98
2022-11-28T21:56:17.320Z,81.69
2022-11-28T21:58:44.174Z,81.00
2022-11-28T22:01:12.968Z,80.60
2022-11-28T22:03:41.282Z,79.83
2022-11-28T22:06:14.936Z,79.42
2022-11-28T22:08:41.946Z,79.30
2022-11-28T22:11:09.253Z,79.35
2022-11-28T22:13:36.203Z,79.12
2022-11-28T22:16:11.986Z,78.84
2022-11-28T22:18:38.755Z,78.63
2022-11-28T22:21:22.559Z,79.13
2022-11-28T22:23:55.215Z,78.63
2022-11-28T22:26:24.879Z,78.98
2022-11-28T22:28:53.816Z,78.90
2022-11-28T22:31:22.988Z,78.92
2022-11-28T22:33:50.658Z,78.20
2022-11-28T22:36:19.653Z,78.16
2022-11-28T22:38:48.417Z,78.33
2022-11-28T22:41:24.856Z,77.84
2022-11-28T22:43:57.273Z,78.26
2022-11-28T22:46:24.364Z,78.02
2022-11-28T22:48:51.018Z,78.18
2022-11-28T22:51:24.851Z,78.38
2022-11-28T22:53:57.815Z,78.46
2022-11-28T22:56:27.237Z,78.57
2022-11-28T22:58:54.704Z,78.35
2022-11-28T23:01:25.755Z,78.94
2022-11-28T23:03:53.998Z,78.91
2022-11-28T23:06:32.346Z,78.68
2022-11-28T23:09:01.787Z,80.17
2022-11-28T23:11:31.345Z,81.63
2022-11-28T23:13:59.404Z,80.73
2022-11-28T23:16:39.004Z,81.60
2022-11-28T23:19:10.687Z,80.53
2022-11-28T23:21:40.259Z,80.62
2022-11-28T23:24:11.858Z,79.89
2022-11-28T23:26:38.608Z,79.32
2022-11-28T23:29:05.937Z,79.17
2022-11-28T23:31:36.850Z,79.57
2022-11-28T23:34:04.252Z,78.93
2022-11-28T23:36:40.084Z,79.29
2022-11-28T23:39:26.895Z,78.61
2022-11-28T23:42:03.003Z,79.21
2022-11-28T23:44:29.623Z,79.43
2022-11-28T23:46:56.204Z,79.82
2022-11-28T23:49:22.967Z,80.03
2022-11-28T23:51:49.559Z,79.97
2022-11-28T23:54:16.284Z,79.72
2022-11-28T23:56:43.362Z,79.80
2022-11-28T23:59:12.016Z,79.47
